Time;durP1;ratioP1;P1;durP2;ratioP2;P2;SDS_P1;SDS_P2;PMS_P1;PMS_P2;Temp;Humidity;BMP_temperature;BMP_pressure;BME280_temperature;BME280_humidity;BME280_pressure;Samples;Min_cycle;Max_cycle;Signal;HPM_P1;HPM_P2
2022/10/06 00:01:41;;;;;;;2.97;1.67;;;;;;;17.39;75.82;100906.06;5034354;28;20209;-80
2022/10/06 00:04:09;;;;;;;2.30;2.00;;;;;;;17.40;76.20;100905.13;5037642;28;20226;-79
2022/10/06 00:06:35;;;;;;;2.30;1.87;;;;;;;17.38;75.30;100922.81;5037275;28;20725;-80
2022/10/06 00:09:02;;;;;;;3.67;3.00;;;;;;;17.44;75.61;100930.50;5037733;28;20209;-79
2022/10/06 00:11:28;;;;;;;3.30;2.80;;;;;;;17.45;75.25;100948.91;5037788;28;20721;-80
2022/10/06 00:13:55;;;;;;;2.10;1.90;;;;;;;17.45;75.32;100950.69;5037613;28;20587;-80
2022/10/06 00:16:22;;;;;;;2.50;2.30;;;;;;;17.44;75.10;100936.66;5037194;28;20218;-79
2022/10/06 00:18:49;;;;;;;3.33;2.57;;;;;;;17.44;75.48;100946.31;5037803;28;20217;-79
2022/10/06 00:21:17;;;;;;;2.83;2.53;;;;;;;17.40;76.02;100940.34;5037275;28;20199;-79
2022/10/06 00:23:43;;;;;;;2.20;1.97;;;;;;;17.38;75.61;100928.97;5037368;28;20245;-78
2022/10/06 00:26:12;;;;;;;2.50;1.40;;;;;;;17.40;76.21;100929.78;5037177;28;20223;-78
2022/10/06 00:28:38;;;;;;;1.43;1.33;;;;;;;17.33;76.67;100914.25;5037945;28;20215;-79
2022/10/06 00:31:05;;;;;;;1.67;1.57;;;;;;;17.34;76.74;100903.59;5037882;28;20584;-81
2022/10/06 00:33:31;;;;;;;1.73;1.63;;;;;;;17.36;76.72;100904.44;5037321;28;20589;-78
2022/10/06 00:35:59;;;;;;;1.90;1.70;;;;;;;17.31;76.76;100898.47;5037540;28;20253;-81
2022/10/06 00:38:27;;;;;;;2.67;2.00;;;;;;;17.32;76.55;100923.06;5037054;28;20202;-78
2022/10/06 00:40:54;;;;;;;3.07;2.20;;;;;;;17.24;76.50;100961.19;5037606;28;20213;-81
2022/10/06 00:43:45;;;;;;;1.07;0.60;;;;;;;16.54;75.74;101035.75;5038196;28;20241;-79
2022/10/06 00:46:17;;;;;;;1.77;0.93;;;;;;;15.34;81.71;100934.28;5037208;28;20261;-81
2022/10/06 00:48:46;;;;;;;0.50;0.40;;;;;;;14.65;84.03;100826.81;5038576;28;20206;-80
2022/10/06 00:51:13;;;;;;;0.93;0.23;;;;;;;14.42;86.47;100734.66;5038035;28;20228;-79
2022/10/06 00:53:41;;;;;;;0.20;0.20;;;;;;;14.11;88.44;100706.66;5037161;28;20208;-81
2022/10/06 00:56:08;;;;;;;0.20;0.20;;;;;;;13.92;89.28;100666.97;5036601;28;20274;-82
2022/10/06 00:58:34;;;;;;;0.33;0.20;;;;;;;13.59;92.03;100635.56;5037526;28;20208;-81
2022/10/06 01:01:03;;;;;;;0.37;0.10;;;;;;;13.33;95.00;100583.00;5038292;28;20206;-80
2022/10/06 01:03:33;;;;;;;0.30;0.23;;;;;;;13.32;96.23;100550.69;5038393;28;20211;-80
2022/10/06 01:06:01;;;;;;;0.80;0.27;;;;;;;13.21;97.01;100534.34;5038048;28;20232;-81
2022/10/06 01:08:29;;;;;;;0.20;0.20;;;;;;;13.20;96.04;100554.47;5037998;28;20245;-80
2022/10/06 01:10:57;;;;;;;0.23;0.23;;;;;;;13.30;95.16;100597.06;5038562;28;20212;-80
2022/10/06 01:13:24;;;;;;;0.30;0.20;;;;;;;13.16;93.94;100644.59;5037642;28;20215;-80
2022/10/06 01:15:57;;;;;;;0.30;0.30;;;;;;;13.11;93.75;100664.78;5038546;28;20282;-82
2022/10/06 01:18:26;;;;;;;0.20;0.20;;;;;;;13.24;92.30;100712.50;5037850;28;20204;-80
2022/10/06 01:20:59;;;;;;;0.50;0.27;;;;;;;13.17;91.88;100739.78;5037944;28;20212;-81
2022/10/06 01:23:27;;;;;;;2.57;0.37;;;;;;;13.23;91.32;100752.75;5037866;28;20212;-80
2022/10/06 01:25:54;;;;;;;0.87;0.20;;;;;;;13.32;90.41;100781.41;5037001;28;20234;-79
2022/10/06 01:28:20;;;;;;;0.40;0.20;;;;;;;13.49;90.37;100797.53;5037795;28;20239;-81
2022/10/06 01:30:51;;;;;;;0.57;0.30;;;;;;;13.59;88.62;100832.28;5037560;28;20203;-83
2022/10/06 01:33:17;;;;;;;0.30;0.20;;;;;;;13.62;87.48;100883.81;5037323;28;20208;-80
2022/10/06 01:35:47;;;;;;;0.30;0.20;;;;;;;13.59;88.04;100891.75;5037431;28;20243;-79
2022/10/06 01:38:14;;;;;;;0.30;0.30;;;;;;;13.57;87.90;100883.91;5037402;28;20213;-80
2022/10/06 01:40:42;;;;;;;1.07;0.37;;;;;;;13.67;88.15;100884.56;5037558;28;20687;-80
2022/10/06 01:43:08;;;;;;;1.20;0.40;;;;;;;13.80;88.76;100885.13;5037952;28;20209;-80
2022/10/06 01:45:34;;;;;;;1.60;0.60;;;;;;;13.75;87.38;100903.59;5036688;28;20710;-79
2022/10/06 01:48:01;;;;;;;2.17;0.77;;;;;;;13.84;87.47;100920.88;5036767;28;20212;-81
2022/10/06 01:50:27;;;;;;;2.47;1.03;;;;;;;13.75;87.20;100940.31;5036938;28;20614;-80
2022/10/06 01:52:55;;;;;;;1.27;1.07;;;;;;;13.78;87.24;100940.25;5036990;28;20217;-80
2022/10/06 01:55:21;;;;;;;1.77;1.30;;;;;;;13.76;87.31;100923.69;5036935;28;20227;-79
2022/10/06 01:57:49;;;;;;;3.90;1.97;;;;;;;13.71;87.62;100922.94;5036360;28;20812;-80
2022/10/06 02:00:16;;;;;;;1.87;1.60;;;;;;;13.72;87.79;100919.44;5036182;28;20665;-80
2022/10/06 02:02:43;;;;;;;2.77;2.30;;;;;;;13.69;87.90;100914.22;5036078;28;20214;-79
2022/10/06 02:05:11;;;;;;;1.20;1.10;;;;;;;13.51;88.28;100915.53;5036283;28;20220;-80
2022/10/06 02:07:38;;;;;;;1.87;1.40;;;;;;;13.62;87.75;100921.41;5036223;28;20213;-81
2022/10/06 02:10:06;;;;;;;2.77;1.77;;;;;;;13.57;87.09;100939.00;5036375;28;20213;-80
2022/10/06 02:12:33;;;;;;;2.33;1.10;;;;;;;13.67;86.53;100945.75;5036393;28;20744;-80
2022/10/06 02:15:01;;;;;;;1.30;1.20;;;;;;;13.80;85.27;100971.72;5035745;28;20243;-80
2022/10/06 02:17:28;;;;;;;1.73;0.97;;;;;;;13.71;84.91;101017.38;5036282;28;20204;-81
2022/10/06 02:19:54;;;;;;;3.43;0.97;;;;;;;13.77;84.79;101030.34;5036144;28;20237;-80
2022/10/06 02:23:08;;;;;;;1.67;1.30;;;;;;;13.86;84.54;101024.91;5036027;28;20213;-80
2022/10/06 02:25:35;;;;;;;1.37;1.27;;;;;;;13.92;84.10;101060.66;5032629;28;20336;-81
2022/10/06 02:28:01;;;;;;;3.00;1.27;;;;;;;13.98;83.97;101062.28;5035584;28;20212;-81
2022/10/06 02:30:29;;;;;;;5.00;1.70;;;;;;;13.95;84.38;101071.06;5035949;28;20208;-81
2022/10/06 02:32:55;;;;;;;1.83;1.70;;;;;;;13.90;84.42;101070.31;5035430;28;20209;-81
2022/10/06 02:35:22;;;;;;;1.77;1.67;;;;;;;13.90;84.85;101065.94;5035092;28;20259;-81
2022/10/06 02:37:49;;;;;;;3.00;1.77;;;;;;;13.85;85.18;101056.44;5035651;28;20264;-80
2022/10/06 02:40:16;;;;;;;1.40;1.13;;;;;;;13.90;84.89;101059.81;5034940;28;20210;-80
2022/10/06 02:42:42;;;;;;;1.57;0.50;;;;;;;13.89;84.82;101074.72;5035753;28;20237;-79
2022/10/06 02:45:09;;;;;;;1.40;0.47;;;;;;;13.93;85.07;101069.38;5035565;28;20222;-79
2022/10/06 02:47:37;;;;;;;1.73;0.60;;;;;;;13.99;84.75;101072.72;5035638;28;20212;-82
2022/10/06 02:50:06;;;;;;;1.77;1.00;;;;;;;13.84;85.92;101057.34;5035227;28;20209;-81
2022/10/06 02:52:34;;;;;;;1.87;1.43;;;;;;;13.82;86.21;101053.88;5035676;28;20209;-81
2022/10/06 02:55:03;;;;;;;2.60;1.20;;;;;;;13.57;87.51;101043.06;5035843;28;20239;-81
2022/10/06 02:57:29;;;;;;;4.00;1.40;;;;;;;13.57;88.40;101006.34;5036773;28;20209;-81
2022/10/06 02:59:56;;;;;;;3.10;0.70;;;;;;;13.62;88.31;100994.00;5036096;28;20266;-81
2022/10/06 03:02:23;;;;;;;2.13;0.83;;;;;;;13.59;88.01;100994.91;5035871;28;20209;-81
2022/10/06 03:04:50;;;;;;;2.60;0.83;;;;;;;13.48;88.40;101010.91;5035805;28;20275;-82
2022/10/06 03:07:17;;;;;;;3.03;1.03;;;;;;;13.52;88.43;101009.06;5036499;28;20230;-81
2022/10/06 03:09:44;;;;;;;1.03;0.63;;;;;;;13.31;89.09;101003.38;5036215;28;20632;-81
2022/10/06 03:12:10;;;;;;;1.00;0.80;;;;;;;13.39;89.16;100999.75;5036328;28;20212;-81
2022/10/06 03:14:37;;;;;;;2.63;0.87;;;;;;;13.35;89.60;100991.06;5036431;28;20324;-79
2022/10/06 03:17:03;;;;;;;2.80;0.97;;;;;;;13.34;89.13;100997.22;5036377;28;20213;-81
2022/10/06 03:19:30;;;;;;;2.37;1.13;;;;;;;13.38;88.66;101009.38;5036351;28;20209;-80
2022/10/06 03:21:57;;;;;;;2.73;0.63;;;;;;;13.38;89.25;101022.47;5036311;28;20567;-81
2022/10/06 03:24:24;;;;;;;1.90;1.00;;;;;;;13.41;88.35;101034.66;5035832;28;20225;-81
2022/10/06 03:26:50;;;;;;;6.23;1.30;;;;;;;13.25;89.12;101039.31;5035696;28;20233;-79
2022/10/06 03:29:17;;;;;;;2.43;0.93;;;;;;;13.18;88.96;101035.09;5036015;28;20210;-80
2022/10/06 03:31:43;;;;;;;2.33;1.17;;;;;;;13.26;89.05;101046.28;5035656;28;20210;-80
2022/10/06 03:34:12;;;;;;;3.53;1.10;;;;;;;13.13;89.27;101044.81;5036553;28;20234;-79
2022/10/06 03:36:39;;;;;;;2.47;1.10;;;;;;;13.06;89.25;101041.44;5038078;28;20220;-79
2022/10/06 03:39:07;;;;;;;3.00;1.10;;;;;;;13.16;88.99;101048.25;5039813;28;20201;-81
2022/10/06 03:41:36;;;;;;;2.00;0.90;;;;;;;13.11;88.94;101064.03;5040652;28;20208;-82
2022/10/06 03:44:03;;;;;;;3.90;0.90;;;;;;;13.08;88.83;101058.88;5039608;28;20691;-81
2022/10/06 03:46:31;;;;;;;4.17;1.10;;;;;;;13.03;88.47;101060.72;5040118;28;20229;-81
2022/10/06 03:48:59;;;;;;;1.43;0.90;;;;;;;13.10;88.09;101077.19;5040197;28;20204;-82
2022/10/06 03:51:28;;;;;;;4.10;1.37;;;;;;;13.06;87.83;101100.00;5040038;28;20205;-80
2022/10/06 03:53:55;;;;;;;4.03;1.13;;;;;;;12.98;88.37;101096.63;5039760;28;20244;-80
2022/10/06 03:56:25;;;;;;;3.40;1.03;;;;;;;12.99;88.45;101090.50;5039875;28;20671;-81
2022/10/06 03:58:52;;;;;;;2.57;1.00;;;;;;;12.95;88.09;101101.94;5040113;28;20737;-81
2022/10/06 04:01:20;;;;;;;6.13;1.20;;;;;;;12.99;88.09;101111.47;5039595;28;20202;-81
2022/10/06 04:03:47;;;;;;;4.40;1.30;;;;;;;13.06;87.64;101126.19;5039782;28;20290;-81
2022/10/06 04:06:17;;;;;;;3.40;1.33;;;;;;;13.12;87.33;101135.69;5039185;28;20648;-81
2022/10/06 04:08:45;;;;;;;3.37;0.90;;;;;;;13.04;87.19;101146.31;5039785;28;20219;-79
2022/10/06 04:11:13;;;;;;;4.80;1.53;;;;;;;13.07;86.96;101161.97;5039741;28;20205;-80
2022/10/06 04:13:42;;;;;;;5.33;1.07;;;;;;;13.04;87.18;101171.66;5039766;28;20205;-81
2022/10/06 04:16:11;;;;;;;2.57;1.17;;;;;;;13.06;86.97;101182.97;5039720;28;20229;-82
2022/10/06 04:18:37;;;;;;;5.83;1.20;;;;;;;13.01;86.36;101190.06;5039442;28;20216;-82
2022/10/06 04:21:04;;;;;;;3.43;1.63;;;;;;;13.04;86.55;101208.34;5039618;28;20244;-81
2022/10/06 04:23:31;;;;;;;4.53;1.80;;;;;;;13.08;86.14;101226.63;5039583;28;20707;-83
2022/10/06 04:25:58;;;;;;;4.43;1.50;;;;;;;13.05;85.82;101231.06;5038993;28;20723;-82
2022/10/06 04:28:25;;;;;;;3.87;1.67;;;;;;;13.14;85.65;101246.63;5039401;28;20228;-81
2022/10/06 04:30:57;;;;;;;4.10;1.60;;;;;;;13.17;85.43;101248.34;5039674;28;20213;-81
2022/10/06 04:33:23;;;;;;;5.13;1.93;;;;;;;13.13;85.09;101267.63;5038668;28;20217;-79
2022/10/06 04:35:56;;;;;;;3.93;2.00;;;;;;;13.16;85.69;101260.59;5037949;28;20295;-81
2022/10/06 04:38:23;;;;;;;7.90;2.50;;;;;;;13.01;85.68;101255.59;5037895;28;20215;-81
2022/10/06 04:40:58;;;;;;;4.73;2.53;;;;;;;13.06;85.53;101252.00;5039176;28;20207;-80
2022/10/06 04:43:26;;;;;;;3.50;1.63;;;;;;;13.02;85.74;101265.16;5038542;28;20254;-79
2022/10/06 04:45:58;;;;;;;4.13;1.90;;;;;;;13.01;85.37;101256.44;5038204;28;20233;-80
2022/10/06 04:48:25;;;;;;;3.53;2.37;;;;;;;13.08;85.96;101270.31;5037468;28;20690;-80
2022/10/06 04:50:56;;;;;;;4.60;2.40;;;;;;;13.11;85.66;101273.75;5037902;28;20477;-81
2022/10/06 04:53:23;;;;;;;4.87;1.97;;;;;;;13.06;86.11;101272.97;5037734;28;20263;-81
2022/10/06 04:55:58;;;;;;;3.87;2.10;;;;;;;13.19;86.41;101275.41;5037039;28;20232;-81
2022/10/06 04:58:25;;;;;;;5.60;2.10;;;;;;;13.22;86.21;101275.31;5037476;28;20299;-81
2022/10/06 05:00:51;;;;;;;2.20;2.00;;;;;;;13.20;86.50;101278.00;5037689;28;20212;-80
2022/10/06 05:03:19;;;;;;;7.50;2.33;;;;;;;13.17;86.40;101283.28;5037843;28;20737;-80
2022/10/06 05:05:45;;;;;;;7.40;2.13;;;;;;;13.21;85.55;101302.44;5037182;28;20232;-80
2022/10/06 05:08:12;;;;;;;6.43;2.23;;;;;;;13.17;85.95;101314.72;5037539;28;20227;-80
2022/10/06 05:10:38;;;;;;;2.97;1.80;;;;;;;13.24;85.39;101324.25;5037390;28;20622;-81
2022/10/06 05:13:07;;;;;;;3.13;1.97;;;;;;;13.18;85.94;101326.06;5037433;28;20212;-78
2022/10/06 05:15:33;;;;;;;5.37;2.23;;;;;;;13.05;86.14;101322.78;5037310;28;20234;-81
2022/10/06 05:18:00;;;;;;;3.73;2.67;;;;;;;13.15;86.11;101324.38;5038102;28;20200;-80
2022/10/06 05:20:27;;;;;;;5.27;2.50;;;;;;;13.17;85.51;101340.94;5037695;28;20667;-78
2022/10/06 05:22:54;;;;;;;2.07;1.93;;;;;;;13.23;85.07;101363.59;5037123;28;20267;-81
2022/10/06 05:25:20;;;;;;;7.80;2.53;;;;;;;13.19;84.70;101383.75;5035905;28;20303;-79
2022/10/06 05:27:47;;;;;;;3.50;2.03;;;;;;;13.02;85.04;101404.06;5036602;28;20657;-80
2022/10/06 05:30:13;;;;;;;3.47;2.07;;;;;;;13.10;85.00;101396.97;5036354;28;20207;-80
2022/10/06 05:32:40;;;;;;;5.67;2.37;;;;;;;13.18;84.85;101404.72;5035799;28;20204;-80
2022/10/06 05:35:07;;;;;;;4.13;1.80;;;;;;;13.09;85.28;101409.22;5035372;28;20228;-81
2022/10/06 05:37:35;;;;;;;5.50;1.60;;;;;;;12.95;84.91;101418.16;5038493;28;20713;-79
2022/10/06 05:40:01;;;;;;;3.43;1.83;;;;;;;13.01;85.03;101426.81;5035866;28;20278;-80
2022/10/06 05:42:28;;;;;;;3.87;1.70;;;;;;;13.08;84.75;101441.56;5036400;28;20220;-81
2022/10/06 05:44:54;;;;;;;4.83;1.80;;;;;;;13.10;84.45;101460.78;5036427;28;20231;-81
2022/10/06 05:47:20;;;;;;;5.87;1.60;;;;;;;13.08;82.96;101487.88;5036498;28;20870;-79
2022/10/06 05:49:47;;;;;;;2.60;1.40;;;;;;;13.16;83.06;101507.00;5037131;28;20216;-79
2022/10/06 05:52:14;;;;;;;7.23;1.93;;;;;;;13.04;81.92;101557.84;5036675;28;20211;-80
2022/10/06 05:54:41;;;;;;;5.07;1.53;;;;;;;13.06;82.03;101570.91;5036327;28;20232;-80
2022/10/06 05:57:08;;;;;;;6.00;1.70;;;;;;;12.98;81.99;101597.19;5036497;28;20622;-80
2022/10/06 05:59:34;;;;;;;6.47;1.67;;;;;;;13.06;80.88;101599.72;5035518;28;20672;-79
2022/10/06 06:02:01;;;;;;;5.73;1.57;;;;;;;13.06;80.75;101631.19;5036178;28;20287;-79
2022/10/06 06:04:27;;;;;;;5.97;2.33;;;;;;;13.15;79.85;101664.34;5036392;28;20233;-80
2022/10/06 06:06:53;;;;;;;8.57;1.13;;;;;;;12.96;80.00;101680.22;5035955;28;20244;-80
2022/10/06 06:09:21;;;;;;;4.20;1.40;;;;;;;12.96;79.83;101682.81;5036339;28;20202;-79
2022/10/06 06:11:51;;;;;;;4.60;1.50;;;;;;;13.14;79.30;101697.56;5037259;28;20267;-81
2022/10/06 06:15:59;;;;;;;3.63;1.60;;;;;;;12.99;79.96;101680.19;5036121;28;20264;-81
2022/10/06 06:17:05;;;;;;;3.70;1.13;;;;;;;13.08;79.29;101701.09;5035493;28;20253;-79
2022/10/06 06:19:31;;;;;;;4.80;1.83;;;;;;;13.07;79.57;101699.34;5035624;28;20217;-80
2022/10/06 06:21:58;;;;;;;2.47;0.93;;;;;;;12.96;80.06;101697.69;5035498;28;20210;-79
2022/10/06 06:24:24;;;;;;;5.00;1.10;;;;;;;13.01;79.98;101691.53;5035532;28;20287;-79
2022/10/06 06:26:52;;;;;;;3.90;1.33;;;;;;;13.01;79.36;101688.06;5041732;28;20268;-80
2022/10/06 06:29:18;;;;;;;4.80;1.87;;;;;;;13.05;79.64;101695.00;5044765;28;20212;-79
2022/10/06 06:31:45;;;;;;;5.97;1.47;;;;;;;12.96;78.74;101713.41;5046977;28;20212;-79
2022/10/06 06:34:11;;;;;;;3.83;1.67;;;;;;;12.84;78.65;101735.34;5045189;28;20233;-79
2022/10/06 06:36:40;;;;;;;2.93;1.17;;;;;;;12.90;79.37;101724.81;5046335;28;20204;-78
2022/10/06 06:39:08;;;;;;;6.60;1.87;;;;;;;12.81;79.33;101710.03;5047357;28;20210;-79
2022/10/06 06:41:37;;;;;;;4.83;1.23;;;;;;;12.70;79.82;101715.38;5044596;28;20229;-78
2022/10/06 06:44:05;;;;;;;4.77;1.73;;;;;;;12.80;79.65;101707.44;5045038;28;20264;-79
2022/10/06 06:46:32;;;;;;;5.60;1.97;;;;;;;12.89;79.14;101725.72;5041863;28;20232;-79
2022/10/06 06:49:03;;;;;;;7.33;2.07;;;;;;;12.90;79.17;101723.09;5045279;28;20253;-78
2022/10/06 06:51:30;;;;;;;7.03;1.70;;;;;;;12.90;78.85;101736.19;5047568;28;20200;-80
2022/10/06 06:53:58;;;;;;;6.23;1.90;;;;;;;12.95;79.12;101746.63;5046897;28;20200;-79
2022/10/06 06:56:24;;;;;;;12.33;2.77;;;;;;;13.01;79.16;101741.34;5041584;28;20249;-81
2022/10/06 06:58:51;;;;;;;7.07;2.33;;;;;;;12.98;79.84;101733.47;5042969;28;20273;-80
2022/10/06 07:01:21;;;;;;;10.57;2.33;;;;;;;13.03;79.70;101723.84;5043704;28;20205;-80
2022/10/06 07:03:53;;;;;;;5.33;2.30;;;;;;;12.93;79.67;101751.00;5044488;28;20683;-79
2022/10/06 07:06:20;;;;;;;5.30;2.30;;;;;;;12.96;79.96;101724.75;5043329;28;20203;-79
2022/10/06 07:08:47;;;;;;;5.97;2.37;;;;;;;12.98;80.24;101717.75;5046108;28;20804;-79
2022/10/06 07:11:16;;;;;;;6.23;2.80;;;;;;;13.04;80.57;101701.09;5047003;28;20203;-79
2022/10/06 07:13:43;;;;;;;8.60;2.30;;;;;;;13.06;80.06;101718.59;5049058;28;20204;-80
2022/10/06 07:27:08;;;;;;;5.43;1.57;;;;;;;13.14;80.56;101725.50;5048541;28;20276;-81
2022/10/06 07:29:35;;;;;;;8.67;1.97;;;;;;;13.04;81.06;101736.09;5050294;28;20215;-80
2022/10/06 07:32:01;;;;;;;7.23;2.13;;;;;;;13.10;80.94;101724.66;5049470;28;20579;-80
2022/10/06 07:34:29;;;;;;;4.80;2.03;;;;;;;13.16;80.86;101748.22;5047997;28;20220;-80
2022/10/06 07:36:56;;;;;;;6.47;3.57;;;;;;;13.16;80.42;101748.22;5049056;28;20629;-81
2022/10/06 07:39:23;;;;;;;9.27;2.20;;;;;;;12.93;79.99;101785.09;5048119;28;20205;-80
2022/10/06 07:41:49;;;;;;;7.47;1.70;;;;;;;13.00;79.67;101805.16;5048350;28;20200;-80
2022/10/06 07:44:15;;;;;;;5.00;2.47;;;;;;;13.11;80.31;101795.44;5050979;28;20220;-79
2022/10/06 07:46:42;;;;;;;9.97;2.60;;;;;;;13.10;79.84;101790.19;5048370;28;20677;-81
2022/10/06 07:49:09;;;;;;;7.73;2.10;;;;;;;13.10;79.21;101819.03;5048186;28;20195;-79
2022/10/06 07:51:37;;;;;;;4.47;1.50;;;;;;;13.10;78.00;101825.16;5050499;28;20200;-80
2022/10/06 07:54:03;;;;;;;7.03;2.30;;;;;;;13.14;78.97;101865.34;5049016;28;20204;-80
2022/10/06 07:56:30;;;;;;;5.17;2.07;;;;;;;13.25;79.67;101839.03;5050311;28;20614;-79
2022/10/06 07:58:57;;;;;;;5.80;2.23;;;;;;;13.32;79.04;101848.63;5044937;28;20196;-80
2022/10/06 08:01:25;;;;;;;10.80;3.10;;;;;;;13.26;78.56;101851.25;5050319;28;20211;-81
2022/10/06 08:03:52;;;;;;;8.87;2.50;;;;;;;13.33;78.61;101860.84;5046926;28;20213;-79
2022/10/06 08:06:18;;;;;;;8.70;2.00;;;;;;;13.25;77.42;101907.22;5049699;28;20214;-81
2022/10/06 08:08:47;;;;;;;8.00;2.43;;;;;;;13.19;78.40;101900.25;5049184;28;20235;-80
2022/10/06 08:11:15;;;;;;;7.80;1.73;;;;;;;13.19;78.28;101892.38;5048662;28;20198;-82
2022/10/06 08:13:44;;;;;;;7.00;2.07;;;;;;;13.25;78.35;101892.34;5050062;28;20209;-81
2022/10/06 08:16:12;;;;;;;6.30;1.53;;;;;;;13.36;77.91;101901.91;5051097;28;20216;-81
2022/10/06 08:18:39;;;;;;;4.43;1.83;;;;;;;13.28;78.28;101915.94;5046730;28;20198;-82
2022/10/06 08:21:10;;;;;;;6.83;1.80;;;;;;;13.32;78.35;101901.09;5048650;28;20263;-79
2022/10/06 08:23:41;;;;;;;6.97;1.70;;;;;;;13.43;78.42;101895.75;5048859;28;20609;-82
2022/10/06 08:26:10;;;;;;;7.67;1.97;;;;;;;13.40;77.20;101956.09;5046942;28;20228;-81
2022/10/06 08:28:36;;;;;;;10.27;2.60;;;;;;;13.55;77.98;101948.13;5048514;28;20229;-79
2022/10/06 08:31:04;;;;;;;5.33;1.97;;;;;;;13.42;76.54;101980.56;5049404;28;20208;-81
2022/10/06 08:33:31;;;;;;;5.90;2.00;;;;;;;13.55;77.54;101966.50;5049392;28;20209;-81
2022/10/06 08:36:02;;;;;;;5.50;1.50;;;;;;;13.44;76.73;101982.31;5050431;28;20291;-82
2022/10/06 08:38:29;;;;;;;5.10;1.23;;;;;;;13.47;77.23;101984.03;5049426;28;20231;-82
2022/10/06 08:40:55;;;;;;;6.10;1.70;;;;;;;13.51;76.69;101991.88;5047450;28;20213;-80
2022/10/06 08:43:25;;;;;;;8.07;1.80;;;;;;;13.65;77.37;101970.78;5049403;28;20204;-81
2022/10/06 08:45:58;;;;;;;7.13;1.97;;;;;;;13.74;75.96;101982.13;5049154;28;20224;-81
2022/10/06 08:48:27;;;;;;;3.13;1.83;;;;;;;13.61;74.30;102054.78;5046554;28;20631;-83
2022/10/06 08:51:04;;;;;;;9.03;2.67;;;;;;;13.75;75.47;102049.47;5046769;28;20653;-82
2022/10/06 08:53:38;;;;;;;7.17;1.77;;;;;;;13.79;74.49;102064.31;5047301;28;20205;-82
2022/10/06 08:56:16;;;;;;;6.40;2.03;;;;;;;13.90;75.43;102062.50;5045897;28;20221;-81
2022/10/06 08:58:52;;;;;;;5.07;1.80;;;;;;;13.92;74.91;102068.63;5047030;28;20951;-79
2022/10/06 09:01:22;;;;;;;7.67;1.40;;;;;;;13.87;73.90;102076.53;5044627;28;20202;-81
2022/10/06 09:03:52;;;;;;;5.83;2.10;;;;;;;13.79;73.16;102106.31;5047141;28;20236;-80
2022/10/06 09:06:35;;;;;;;5.93;1.90;;;;;;;13.94;74.44;102089.59;5044518;28;20205;-81
2022/10/06 09:09:14;;;;;;;6.67;2.30;;;;;;;14.01;74.55;102080.78;5045714;28;20221;-81
2022/10/06 09:11:52;;;;;;;8.07;1.87;;;;;;;14.09;75.24;102071.09;5044322;28;20210;-81
2022/10/06 09:14:25;;;;;;;5.20;1.87;;;;;;;14.16;73.38;102085.09;5044306;28;20236;-81
2022/10/06 09:16:59;;;;;;;6.40;2.27;;;;;;;14.15;72.65;102125.34;5046724;28;20210;-81
2022/10/06 09:19:34;;;;;;;9.53;1.83;;;;;;;14.11;71.74;102121.84;5045943;28;20201;-80
2022/10/06 09:22:03;;;;;;;7.27;1.80;;;;;;;14.10;71.90;102175.28;5044333;28;20196;-80
2022/10/06 09:24:34;;;;;;;4.70;2.07;;;;;;;14.20;72.21;102182.22;5047005;28;20237;-81
2022/10/06 09:27:16;;;;;;;9.50;2.70;;;;;;;14.28;72.72;102161.16;5043675;28;20205;-82
2022/10/06 09:29:47;;;;;;;4.10;1.50;;;;;;;14.40;71.74;102182.09;5045642;28;20213;-80
2022/10/06 09:32:14;;;;;;;10.33;2.40;;;;;;;14.46;71.12;102199.56;5047737;28;20202;-81
2022/10/06 09:34:44;;;;;;;4.83;1.43;;;;;;;14.47;70.02;102233.72;5043585;28;20222;-81
2022/10/06 09:37:12;;;;;;;7.80;2.23;;;;;;;14.49;70.35;102260.00;5046905;28;20659;-81
2022/10/06 09:39:42;;;;;;;5.13;1.57;;;;;;;14.53;69.41;102269.59;5042372;28;20207;-81
2022/10/06 09:42:15;;;;;;;5.10;1.30;;;;;;;14.70;69.96;102259.88;5046029;28;20200;-80
2022/10/06 09:44:52;;;;;;;4.47;1.70;;;;;;;14.64;70.13;102287.97;5043442;28;20218;-82
2022/10/06 09:47:37;;;;;;;7.50;2.45;;;;;;;14.80;69.81;102252.78;5045465;28;20201;-82
2022/10/06 09:50:19;;;;;;;4.07;1.03;;;;;;;14.81;68.03;102322.91;5043635;28;20585;-77
2022/10/06 09:53:04;;;;;;;4.63;1.43;;;;;;;14.85;68.00;102361.44;5043991;28;20205;-79
2022/10/06 09:55:39;;;;;;;4.73;1.07;;;;;;;14.82;67.08;102371.09;5045787;28;20645;-80
2022/10/06 09:58:19;;;;;;;3.23;1.97;;;;;;;14.80;66.84;102386.00;5046031;28;20215;-78
2022/10/06 10:00:51;;;;;;;4.63;1.20;;;;;;;14.91;67.14;102385.97;5045609;28;20212;-80
2022/10/06 10:03:17;;;;;;;2.50;1.20;;;;;;;14.87;65.29;102419.28;5045454;28;20263;-79
2022/10/06 10:05:47;;;;;;;6.27;1.50;;;;;;;14.93;65.85;102436.78;5047010;28;20268;-79
2022/10/06 10:08:21;;;;;;;4.90;1.60;;;;;;;14.85;63.97;102478.91;5047723;28;20225;-80
2022/10/06 10:10:48;;;;;;;8.27;2.37;;;;;;;14.89;63.96;102484.13;5045098;28;20276;-79
2022/10/06 10:13:20;;;;;;;9.97;1.50;;;;;;;14.94;63.51;102502.50;5045791;28;20201;-80
2022/10/06 10:15:55;;;;;;;2.30;0.97;;;;;;;14.87;62.21;102575.28;5044456;28;20288;-80
2022/10/06 10:18:29;;;;;;;4.53;0.90;;;;;;;14.83;60.35;102591.09;5043241;28;20211;-80
2022/10/06 10:20:58;;;;;;;3.67;0.70;;;;;;;14.87;61.24;102637.53;5044751;28;20587;-80
2022/10/06 10:23:29;;;;;;;3.27;1.50;;;;;;;14.93;62.02;102640.16;5046861;28;20209;-80
2022/10/06 10:26:16;;;;;;;5.97;0.93;;;;;;;14.98;62.91;102588.41;5046744;28;20257;-79
2022/10/06 10:28:58;;;;;;;3.13;1.00;;;;;;;15.01;60.88;102603.31;5045922;28;20316;-80
2022/10/06 10:31:33;;;;;;;3.60;1.40;;;;;;;14.99;61.72;102621.72;5042851;28;20206;-80
2022/10/06 10:34:08;;;;;;;4.80;1.70;;;;;;;15.10;61.49;102584.84;5045064;28;20198;-79
2022/10/06 10:36:39;;;;;;;3.77;1.10;;;;;;;15.14;61.14;102605.00;5044367;28;20212;-79
2022/10/06 10:39:11;;;;;;;4.03;1.00;;;;;;;15.13;60.88;102610.31;5046519;28;20223;-79
2022/10/06 10:41:44;;;;;;;3.07;0.90;;;;;;;15.14;59.97;102625.19;5046743;28;20690;-79
2022/10/06 10:44:23;;;;;;;3.53;0.93;;;;;;;15.15;60.74;102630.47;5046712;28;20221;-80
2022/10/06 10:46:54;;;;;;;5.20;1.70;;;;;;;15.17;60.73;102638.34;5044205;28;20236;-80
2022/10/06 10:49:27;;;;;;;1.70;1.00;;;;;;;15.21;60.51;102646.22;5043203;28;20221;-79
2022/10/06 10:52:00;;;;;;;3.77;0.90;;;;;;;15.33;60.47;102633.91;5045217;28;20212;-80
2022/10/06 10:54:30;;;;;;;4.67;1.30;;;;;;;15.27;58.02;102627.78;5044233;28;20305;-80
2022/10/06 10:56:58;;;;;;;3.40;0.80;;;;;;;15.34;57.41;102686.56;5044041;28;20197;-80
2022/10/06 10:59:31;;;;;;;3.90;1.90;;;;;;;15.31;56.98;102733.03;5046004;28;20255;-79
2022/10/06 11:02:04;;;;;;;6.10;1.00;;;;;;;15.34;57.12;102759.34;5045661;28;20208;-81
2022/10/06 11:04:31;;;;;;;4.97;1.00;;;;;;;15.42;57.98;102747.03;5045515;28;20740;-80
2022/10/06 11:07:20;;;;;;;1.87;1.20;;;;;;;15.42;56.95;102741.78;5046958;28;20205;-79
2022/10/06 11:09:57;;;;;;;4.33;1.17;;;;;;;15.46;57.20;102738.25;5044142;28;20224;-79
2022/10/06 11:12:39;;;;;;;3.80;1.10;;;;;;;15.37;57.19;102748.81;5042692;28;20235;-80
2022/10/06 11:15:16;;;;;;;3.53;1.03;;;;;;;15.33;56.81;102744.44;5043674;28;20746;-82
2022/10/06 11:17:46;;;;;;;4.73;1.33;;;;;;;15.46;57.80;102723.34;5043743;28;20212;-82
2022/10/06 11:20:25;;;;;;;2.20;0.80;;;;;;;15.43;55.04;102743.53;5046050;28;20197;-81
2022/10/06 11:22:58;;;;;;;4.53;1.27;;;;;;;15.47;56.56;102771.59;5046588;28;20258;-79
2022/10/06 11:25:35;;;;;;;2.57;1.20;;;;;;;15.38;55.73;102759.34;5043869;28;20217;-80
2022/10/06 11:28:12;;;;;;;2.13;0.80;;;;;;;15.61;56.73;102750.50;5051923;28;20272;-79
2022/10/06 11:30:55;;;;;;;7.30;1.80;;;;;;;15.75;57.07;102721.53;5035893;28;20237;-80
2022/10/06 11:33:29;;;;;;;5.47;1.00;;;;;;;15.71;56.73;102722.41;5049949;28;20236;-79
2022/10/06 11:35:55;;;;;;;2.30;0.87;;;;;;;15.82;56.90;102718.88;5053560;28;20229;-79
2022/10/06 11:38:26;;;;;;;4.40;0.90;;;;;;;15.95;56.48;102716.19;5054473;28;20236;-78
2022/10/06 11:41:08;;;;;;;3.97;1.37;;;;;;;16.23;56.13;102756.44;5055629;28;20215;-78
2022/10/06 11:43:44;;;;;;;6.00;1.10;;;;;;;16.77;53.73;102767.53;5055138;28;20220;-78
2022/10/06 11:46:24;;;;;;;6.03;1.77;;;;;;;17.55;50.36;102841.69;5054590;28;20230;-77